createdAt,value
2019-05-01T00:00:19.208Z,1011.17
2019-05-01T00:01:19.637Z,1011.15
2019-05-01T00:02:20.079Z,1011.15
2019-05-01T00:03:20.501Z,1011.17
2019-05-01T00:04:20.938Z,1011.11
2019-05-01T00:05:21.371Z,1011.14
2019-05-01T00:06:21.847Z,1011.16
2019-05-01T00:08:56.418Z,1011.16
2019-05-01T00:09:56.844Z,1011.19
2019-05-01T00:11:52.394Z,1011.15
2019-05-01T00:12:52.819Z,1011.17
2019-05-01T00:14:47.389Z,1011.10
2019-05-01T00:15:47.811Z,1011.05
2019-05-01T00:17:42.367Z,1011.07
2019-05-01T00:18:42.807Z,1011.07
2019-05-01T00:20:37.372Z,1011.02
2019-05-01T00:21:37.815Z,1011.02
2019-05-01T00:23:33.337Z,1011.03
2019-05-01T00:24:33.839Z,1011.04
2019-05-01T00:26:29.320Z,1011.01
2019-05-01T00:27:29.748Z,1011.02
2019-05-01T00:29:24.298Z,1011.02
2019-05-01T00:30:30.092Z,1011.00
2019-05-01T00:32:20.309Z,1010.98
2019-05-01T00:33:20.723Z,1010.93
2019-05-01T00:35:15.327Z,1010.92
2019-05-01T00:36:15.696Z,1010.88
2019-05-01T00:39:46.604Z,1010.87
2019-05-01T00:42:20.116Z,1010.86
2019-05-01T00:44:53.631Z,1010.84
2019-05-01T00:45:54.055Z,1010.79
2019-05-01T00:47:48.622Z,1010.78
2019-05-01T00:48:49.051Z,1010.75
2019-05-01T00:50:44.615Z,1010.67
2019-05-01T00:51:45.028Z,1010.66
2019-05-01T00:53:39.592Z,1010.71
2019-05-01T00:54:40.035Z,1010.67
2019-05-01T00:56:35.586Z,1010.65
2019-05-01T00:57:36.009Z,1010.66
2019-05-01T00:59:30.583Z,1010.66
2019-05-01T01:00:42.547Z,1010.66
2019-05-01T01:01:31.443Z,1010.67
2019-05-01T01:02:31.878Z,1010.63
2019-05-01T01:03:32.321Z,1010.65
2019-05-01T01:04:32.748Z,1010.61
2019-05-01T01:05:33.176Z,1010.63
2019-05-01T01:06:33.607Z,1010.66
2019-05-01T01:07:34.041Z,1010.61
2019-05-01T01:08:34.473Z,1010.61
2019-05-01T01:09:34.903Z,1010.62
2019-05-01T01:10:35.340Z,1010.57
2019-05-01T01:11:35.770Z,1010.60
2019-05-01T01:12:36.202Z,1010.60
2019-05-01T01:13:36.635Z,1010.57
2019-05-01T01:14:37.069Z,1010.58
2019-05-01T01:15:37.503Z,1010.55
2019-05-01T01:16:37.933Z,1010.56
2019-05-01T01:17:38.371Z,1010.52
2019-05-01T01:18:38.804Z,1010.57
2019-05-01T01:19:39.232Z,1010.54
2019-05-01T01:20:39.666Z,1010.49
2019-05-01T01:21:40.103Z,1010.47
2019-05-01T01:22:40.530Z,1010.47
2019-05-01T01:23:40.967Z,1010.49
2019-05-01T01:24:41.393Z,1010.48
2019-05-01T01:25:41.827Z,1010.46
2019-05-01T01:26:42.262Z,1010.48
2019-05-01T01:27:42.690Z,1010.46
2019-05-01T01:28:43.121Z,1010.46
2019-05-01T01:29:43.562Z,1010.44
2019-05-01T01:30:55.610Z,1010.45
2019-05-01T01:31:44.421Z,1010.42
2019-05-01T01:32:44.853Z,1010.43
2019-05-01T01:33:45.285Z,1010.39
2019-05-01T01:34:45.780Z,1010.38
2019-05-01T01:35:46.157Z,1010.37
2019-05-01T01:36:46.584Z,1010.40
2019-05-01T01:37:47.017Z,1010.38
2019-05-01T01:38:47.447Z,1010.35
2019-05-01T01:39:47.885Z,1010.31
2019-05-01T01:40:48.309Z,1010.29
2019-05-01T01:41:48.741Z,1010.31
2019-05-01T01:42:49.183Z,1010.26
2019-05-01T01:43:49.607Z,1010.25
2019-05-01T01:44:50.040Z,1010.26
2019-05-01T01:45:50.469Z,1010.29
2019-05-01T01:46:50.924Z,1010.31
2019-05-01T01:47:51.329Z,1010.30
2019-05-01T01:48:51.778Z,1010.27
2019-05-01T01:49:52.199Z,1010.24
2019-05-01T01:50:52.649Z,1010.31
2019-05-01T01:51:53.067Z,1010.25
2019-05-01T01:52:53.747Z,1010.23
2019-05-01T01:53:53.928Z,1010.21
2019-05-01T01:54:54.361Z,1010.20
2019-05-01T01:55:54.792Z,1010.20
2019-05-01T01:56:55.230Z,1010.17
2019-05-01T01:57:55.670Z,1010.16
2019-05-01T01:58:56.086Z,1010.16
2019-05-01T01:59:56.521Z,1010.14
2019-05-01T02:01:08.992Z,1010.13
2019-05-01T02:01:57.377Z,1010.11
2019-05-01T02:02:57.812Z,1010.10
2019-05-01T02:03:58.240Z,1010.08
2019-05-01T02:04:58.669Z,1010.08
2019-05-01T02:05:59.103Z,1010.08
2019-05-01T02:06:59.532Z,1010.07
2019-05-01T02:07:59.964Z,1010.05
2019-05-01T02:09:00.397Z,1010.03
2019-05-01T02:10:00.852Z,1010.05
2019-05-01T02:11:01.267Z,1010.00
2019-05-01T02:12:01.697Z,1010.03
2019-05-01T02:13:02.122Z,1009.99
2019-05-01T02:14:02.554Z,1009.94
2019-05-01T02:15:02.976Z,1009.96
2019-05-01T02:16:03.421Z,1009.95
2019-05-01T02:17:03.844Z,1009.94
2019-05-01T02:18:04.275Z,1009.92
2019-05-01T02:19:04.707Z,1009.92
2019-05-01T02:20:05.137Z,1009.89
2019-05-01T02:21:05.575Z,1009.91
2019-05-01T02:22:06.003Z,1009.91
2019-05-01T02:23:06.431Z,1009.91
2019-05-01T02:24:06.863Z,1009.90
2019-05-01T02:25:07.294Z,1009.92
2019-05-01T02:26:07.725Z,1009.93
2019-05-01T02:27:08.155Z,1009.87
2019-05-01T02:28:08.597Z,1009.83
2019-05-01T02:29:09.031Z,1009.86
2019-05-01T02:30:09.458Z,1009.82
2019-05-01T02:31:26.701Z,1009.86
2019-05-01T02:32:10.309Z,1009.84
2019-05-01T02:33:10.740Z,1009.84
2019-05-01T02:34:11.215Z,1009.86
2019-05-01T02:35:11.610Z,1009.89
2019-05-01T02:36:12.038Z,1009.79
2019-05-01T02:37:12.473Z,1009.84
2019-05-01T02:38:12.900Z,1009.81
2019-05-01T02:39:13.326Z,1009.85
2019-05-01T02:40:13.751Z,1009.84
2019-05-01T02:41:14.193Z,1009.87
2019-05-01T02:42:14.631Z,1009.85
2019-05-01T02:43:15.049Z,1009.85
2019-05-01T02:44:15.477Z,1009.81
2019-05-01T02:45:15.912Z,1009.81
2019-05-01T02:46:16.341Z,1009.82
2019-05-01T02:47:16.770Z,1009.81
2019-05-01T02:48:17.198Z,1009.87
2019-05-01T02:49:17.800Z,1009.82
2019-05-01T02:50:18.071Z,1009.79
2019-05-01T02:51:18.491Z,1009.77
2019-05-01T02:52:18.929Z,1009.75
2019-05-01T02:53:19.359Z,1009.73
2019-05-01T02:54:19.785Z,1009.70
2019-05-01T02:55:20.214Z,1009.69
2019-05-01T02:56:20.648Z,1009.68
2019-05-01T02:57:21.077Z,1009.68
2019-05-01T02:58:21.502Z,1009.67
2019-05-01T02:59:21.935Z,1009.70
2019-05-01T03:00:22.383Z,1009.69
2019-05-01T03:01:22.802Z,1009.66
2019-05-01T03:02:23.228Z,1009.66
2019-05-01T03:03:23.659Z,1009.59
2019-05-01T03:04:24.093Z,1009.67
2019-05-01T03:05:24.520Z,1009.65
2019-05-01T03:06:24.953Z,1009.65
2019-05-01T03:07:25.378Z,1009.64
2019-05-01T03:08:25.804Z,1009.63
2019-05-01T03:09:26.238Z,1009.60
2019-05-01T03:10:26.666Z,1009.60
2019-05-01T03:11:27.098Z,1009.63
2019-05-01T03:12:27.529Z,1009.59
2019-05-01T03:13:27.959Z,1009.60
2019-05-01T03:14:28.388Z,1009.59
2019-05-01T03:15:28.822Z,1009.57
2019-05-01T03:16:29.249Z,1009.55
2019-05-01T03:17:29.707Z,1009.59
2019-05-01T03:18:30.114Z,1009.53
2019-05-01T03:19:30.537Z,1009.52
2019-05-01T03:20:30.968Z,1009.50
2019-05-01T03:21:31.403Z,1009.56
2019-05-01T03:22:31.824Z,1009.52
2019-05-01T03:23:32.268Z,1009.49
2019-05-01T03:24:32.687Z,1009.49
2019-05-01T03:25:33.127Z,1009.45
2019-05-01T03:26:33.550Z,1009.51
2019-05-01T03:27:33.982Z,1009.46
2019-05-01T03:28:34.413Z,1009.43
2019-05-01T03:29:34.840Z,1009.43
2019-05-01T03:30:35.268Z,1009.45
2019-05-01T03:31:35.714Z,1009.47
2019-05-01T03:32:36.128Z,1009.44
2019-05-01T03:33:36.560Z,1009.47
2019-05-01T03:34:36.981Z,1009.47
2019-05-01T03:35:37.415Z,1009.48
2019-05-01T03:36:37.851Z,1009.50
2019-05-01T03:37:38.274Z,1009.49
2019-05-01T03:38:38.704Z,1009.54
2019-05-01T03:39:39.136Z,1009.53
2019-05-01T03:40:39.563Z,1009.49
2019-05-01T03:41:40.002Z,1009.49
2019-05-01T03:42:40.425Z,1009.49
2019-05-01T03:43:40.853Z,1009.52
2019-05-01T03:44:41.282Z,1009.41
2019-05-01T03:45:41.718Z,1009.43
2019-05-01T03:46:42.145Z,1009.46
2019-05-01T03:47:42.569Z,1009.48
2019-05-01T03:48:43.026Z,1009.42
2019-05-01T03:49:43.461Z,1009.48
2019-05-01T03:50:46.840Z,1009.44
2019-05-01T03:51:44.291Z,1009.46
2019-05-01T03:52:44.719Z,1009.47
2019-05-01T03:53:45.160Z,1009.46
2019-05-01T03:54:45.614Z,1009.50
2019-05-01T03:55:46.007Z,1009.51
2019-05-01T03:56:46.439Z,1009.46
2019-05-01T03:57:46.866Z,1009.48
2019-05-01T03:58:47.294Z,1009.48
2019-05-01T03:59:47.725Z,1009.49
2019-05-01T04:00:48.152Z,1009.47
2019-05-01T04:01:48.586Z,1009.43
2019-05-01T04:02:49.015Z,1009.47
2019-05-01T04:03:49.454Z,1009.47
2019-05-01T04:04:49.873Z,1009.49
2019-05-01T04:05:50.299Z,1009.50
2019-05-01T04:06:50.727Z,1009.53
2019-05-01T04:07:51.160Z,1009.56
2019-05-01T04:08:51.589Z,1009.53
2019-05-01T04:09:52.017Z,1009.59
2019-05-01T04:10:52.451Z,1009.61
2019-05-01T04:11:52.873Z,1009.57
2019-05-01T04:12:53.306Z,1009.58
2019-05-01T04:13:53.734Z,1009.56
2019-05-01T04:14:54.166Z,1009.55
2019-05-01T04:15:54.592Z,1009.53
2019-05-01T04:16:55.035Z,1009.55
2019-05-01T04:17:55.451Z,1009.55
2019-05-01T04:18:55.881Z,1009.57
2019-05-01T04:19:56.319Z,1009.59
2019-05-01T04:20:56.740Z,1009.58
2019-05-01T04:21:57.171Z,1009.57
2019-05-01T04:22:57.607Z,1009.47
2019-05-01T04:23:58.030Z,1009.51
2019-05-01T04:24:58.461Z,1009.58
2019-05-01T04:25:58.887Z,1009.53
2019-05-01T04:26:59.314Z,1009.53
2019-05-01T04:27:59.754Z,1009.44
2019-05-01T04:29:00.174Z,1009.48
2019-05-01T04:30:00.600Z,1009.52
2019-05-01T04:31:01.032Z,1009.56
2019-05-01T04:32:01.460Z,1009.57
2019-05-01T04:33:01.891Z,1009.53
2019-05-01T04:34:02.319Z,1009.54
2019-05-01T04:35:02.811Z,1009.51
2019-05-01T04:36:26.919Z,1009.58
2019-05-01T04:37:03.606Z,1009.50
2019-05-01T04:38:04.035Z,1009.51
2019-05-01T04:39:04.477Z,1009.54
2019-05-01T04:40:04.892Z,1009.57
2019-05-01T04:41:05.319Z,1009.54
2019-05-01T04:42:05.751Z,1009.57
2019-05-01T04:43:06.179Z,1009.53
2019-05-01T04:44:06.618Z,1009.58
2019-05-01T04:45:07.044Z,1009.54
2019-05-01T04:46:10.424Z,1009.53
2019-05-01T04:47:07.896Z,1009.55
2019-05-01T04:48:08.327Z,1009.54
2019-05-01T04:49:08.757Z,1009.57
2019-05-01T04:50:09.201Z,1009.54
2019-05-01T04:51:09.613Z,1009.52
2019-05-01T04:52:10.041Z,1009.51
2019-05-01T04:53:10.468Z,1009.52
2019-05-01T04:54:10.901Z,1009.52
2019-05-01T04:55:11.327Z,1009.53
2019-05-01T04:56:12.424Z,1009.56
2019-05-01T04:57:14.940Z,1009.63
2019-05-01T04:58:12.694Z,1009.61
2019-05-01T04:59:15.922Z,1009.67
2019-05-01T05:00:13.472Z,1009.63
2019-05-01T05:01:13.965Z,1009.64
2019-05-01T05:02:14.345Z,1009.66
2019-05-01T05:03:14.755Z,1009.67
2019-05-01T05:04:15.193Z,1009.67
2019-05-01T05:05:15.625Z,1009.68
2019-05-01T05:06:16.058Z,1009.65
2019-05-01T05:07:16.482Z,1009.69
2019-05-01T05:08:16.907Z,1009.68
2019-05-01T05:09:17.329Z,1009.64
2019-05-01T05:10:17.768Z,1009.68
2019-05-01T05:11:18.188Z,1009.70
2019-05-01T05:12:18.622Z,1009.72
2019-05-01T05:14:19.472Z,1009.75
2019-05-01T05:15:19.908Z,1009.77
2019-05-01T05:16:20.337Z,1009.78
2019-05-01T05:17:20.931Z,1009.79
2019-05-01T05:18:21.190Z,1009.78
2019-05-01T05:19:36.428Z,1009.79
2019-05-01T05:20:22.053Z,1009.79
2019-05-01T05:21:22.500Z,1009.78
2019-05-01T05:22:22.921Z,1009.82
2019-05-01T05:23:23.346Z,1009.78
2019-05-01T05:24:23.776Z,1009.75
2019-05-01T05:25:24.201Z,1009.77
2019-05-01T05:26:24.630Z,1009.80
2019-05-01T05:27:25.063Z,1009.80
2019-05-01T05:28:25.491Z,1009.79
2019-05-01T05:29:25.919Z,1009.74
2019-05-01T05:30:26.351Z,1009.70
2019-05-01T05:31:26.779Z,1009.75
2019-05-01T05:32:27.212Z,1009.77
2019-05-01T05:33:27.637Z,1009.76
2019-05-01T05:34:28.087Z,1009.75
2019-05-01T05:35:28.510Z,1009.80
2019-05-01T05:36:28.930Z,1009.81
2019-05-01T05:37:29.358Z,1009.84
2019-05-01T05:38:29.784Z,1009.75
2019-05-01T05:39:30.218Z,1009.75
2019-05-01T05:40:30.645Z,1009.75
2019-05-01T05:41:31.078Z,1009.77
2019-05-01T05:42:31.508Z,1009.74
2019-05-01T05:43:31.940Z,1009.74
2019-05-01T05:44:32.366Z,1009.74
2019-05-01T05:45:32.793Z,1009.73
2019-05-01T05:46:33.231Z,1009.73
2019-05-01T05:47:33.685Z,1009.74
2019-05-01T05:48:34.086Z,1009.69
2019-05-01T05:49:34.512Z,1009.76
2019-05-01T05:50:34.948Z,1009.75
2019-05-01T05:51:35.377Z,1009.73
2019-05-01T05:52:35.800Z,1009.71
2019-05-01T05:53:36.233Z,1009.74
2019-05-01T05:54:36.669Z,1009.64
2019-05-01T05:55:37.095Z,1009.64
2019-05-01T05:56:37.517Z,1009.71
2019-05-01T05:57:37.954Z,1009.70
2019-05-01T05:58:38.388Z,1009.70
2019-05-01T05:59:38.813Z,1009.73
2019-05-01T06:00:39.245Z,1009.71
2019-05-01T06:01:39.673Z,1009.74
2019-05-01T06:02:40.107Z,1009.74
2019-05-01T06:03:40.563Z,1009.74
2019-05-01T06:04:40.966Z,1009.75
2019-05-01T06:05:41.429Z,1009.72
2019-05-01T06:06:41.836Z,1009.73
2019-05-01T06:07:42.259Z,1009.71
2019-05-01T06:08:42.687Z,1009.71
2019-05-01T06:09:44.644Z,1009.75
2019-05-01T06:10:43.552Z,1009.80
2019-05-01T06:11:43.984Z,1009.80
2019-05-01T06:12:46.755Z,1009.78
2019-05-01T06:13:44.838Z,1009.74
2019-05-01T06:14:45.319Z,1009.72
2019-05-01T06:15:45.708Z,1009.75
2019-05-01T06:16:46.903Z,1009.77
2019-05-01T06:17:46.567Z,1009.74
2019-05-01T06:18:47.016Z,1009.73
2019-05-01T06:19:49.592Z,1009.75
2019-05-01T06:20:47.867Z,1009.76
2019-05-01T06:21:48.291Z,1009.78
2019-05-01T06:22:48.723Z,1009.80
2019-05-01T06:23:52.810Z,1009.86
2019-05-01T06:24:49.586Z,1009.82
2019-05-01T06:25:54.320Z,1009.81
2019-05-01T06:26:50.448Z,1009.77
2019-05-01T06:27:50.871Z,1009.77
2019-05-01T06:28:51.304Z,1009.79
2019-05-01T06:29:51.737Z,1009.84
2019-05-01T06:30:52.173Z,1009.80
2019-05-01T06:31:53.904Z,1009.86
2019-05-01T06:32:53.031Z,1009.82
2019-05-01T06:33:54.968Z,1009.81
2019-05-01T06:34:53.904Z,1009.75
2019-05-01T06:35:54.316Z,1009.76
2019-05-01T06:36:54.743Z,1009.75
2019-05-01T06:37:56.012Z,1009.79
2019-05-01T06:38:55.606Z,1009.78
2019-05-01T06:39:56.038Z,1009.85
2019-05-01T06:40:58.287Z,1009.78
2019-05-01T06:41:56.900Z,1009.82
2019-05-01T06:42:57.330Z,1009.82
2019-05-01T06:44:02.094Z,1009.80
2019-05-01T06:44:58.195Z,1009.81
2019-05-01T06:45:59.945Z,1009.89
2019-05-01T06:47:03.398Z,1009.89
2019-05-01T06:47:59.488Z,1009.83
2019-05-01T06:48:59.907Z,1009.84
2019-05-01T06:50:01.194Z,1009.87
2019-05-01T06:51:00.776Z,1009.85
2019-05-01T06:52:01.227Z,1009.78
2019-05-01T06:53:04.525Z,1009.76
2019-05-01T06:54:02.064Z,1009.85
2019-05-01T06:55:02.493Z,1009.86
2019-05-01T06:56:02.928Z,1009.83
2019-05-01T06:57:03.352Z,1009.84
2019-05-01T06:58:03.787Z,1009.90
2019-05-01T06:59:04.214Z,1009.80
2019-05-01T07:00:08.044Z,1009.80
2019-05-01T07:01:05.081Z,1009.79
2019-05-01T07:02:05.505Z,1009.80
2019-05-01T07:03:10.111Z,1009.74
2019-05-01T07:04:06.370Z,1009.78
2019-05-01T07:05:09.078Z,1009.80
2019-05-01T07:06:14.095Z,1009.84
2019-05-01T07:07:23.958Z,1009.87
2019-05-01T07:08:08.096Z,1009.91
2019-05-01T07:09:11.983Z,1009.93
2019-05-01T07:10:08.951Z,1009.92
2019-05-01T07:11:10.844Z,1009.86
2019-05-01T07:12:09.808Z,1009.88
2019-05-01T07:13:10.246Z,1009.88
2019-05-01T07:14:11.048Z,1009.88
2019-05-01T07:15:11.101Z,1009.83
2019-05-01T07:16:11.537Z,1009.89
2019-05-01T07:17:13.566Z,1009.87
2019-05-01T07:18:12.393Z,1009.86
2019-05-01T07:19:12.818Z,1009.92
2019-05-01T07:20:16.802Z,1009.90
2019-05-01T07:21:13.678Z,1009.91
2019-05-01T07:22:14.120Z,1009.86
2019-05-01T07:23:17.495Z,1009.92
2019-05-01T07:24:14.977Z,1009.93
2019-05-01T07:25:15.407Z,1009.90
2019-05-01T07:26:15.836Z,1009.94
2019-05-01T07:27:18.929Z,1009.97
2019-05-01T07:28:16.696Z,1009.99
2019-05-01T07:29:17.119Z,1009.96
2019-05-01T07:30:19.656Z,1009.99
2019-05-01T07:31:17.983Z,1009.95
2019-05-01T07:32:18.429Z,1009.99
2019-05-01T07:33:18.848Z,1009.89
2019-05-01T07:34:21.627Z,1009.95
2019-05-01T07:35:19.716Z,1009.93
2019-05-01T07:36:20.143Z,1009.95
2019-05-01T07:37:20.905Z,1009.95
2019-05-01T07:38:20.998Z,1009.93
2019-05-01T07:39:21.432Z,1009.94
2019-05-01T07:40:28.869Z,1009.92
2019-05-01T07:41:22.295Z,1009.95
2019-05-01T07:42:22.764Z,1009.96
2019-05-01T07:43:23.929Z,1009.90
2019-05-01T07:44:23.587Z,1009.92
2019-05-01T07:45:26.487Z,1009.95
2019-05-01T07:46:24.456Z,1009.87
2019-05-01T07:47:25.924Z,1010.02
2019-05-01T07:48:25.317Z,1009.98
2019-05-01T07:49:25.746Z,1009.96
2019-05-01T07:50:31.525Z,1009.97
2019-05-01T07:51:26.613Z,1009.98
2019-05-01T07:52:27.039Z,1009.96
2019-05-01T07:53:28.361Z,1009.96
2019-05-01T07:54:27.910Z,1010.00
2019-05-01T07:55:28.334Z,1009.97
2019-05-01T07:56:30.049Z,1010.01
2019-05-01T07:57:29.227Z,1009.99
2019-05-01T07:58:29.627Z,1010.05
2019-05-01T07:59:30.071Z,1010.07
2019-05-01T08:00:30.497Z,1010.05
2019-05-01T08:01:30.923Z,1010.04
2019-05-01T08:02:32.990Z,1010.09
2019-05-01T08:03:31.786Z,1010.03
2019-05-01T08:04:36.425Z,1010.03
2019-05-01T08:05:32.657Z,1010.03
2019-05-01T08:06:33.088Z,1010.01
2019-05-01T08:07:33.621Z,1010.08
2019-05-01T08:08:33.954Z,1010.08
2019-05-01T08:09:34.398Z,1010.06
2019-05-01T08:10:34.843Z,1010.08
2019-05-01T08:11:39.187Z,1010.07
2019-05-01T08:12:35.694Z,1010.06
2019-05-01T08:13:36.343Z,1010.03
2019-05-01T08:14:36.594Z,1010.07
2019-05-01T08:15:37.036Z,1010.05
2019-05-01T08:16:37.835Z,1009.98
2019-05-01T08:17:37.862Z,1009.96
2019-05-01T08:18:38.296Z,1009.93
2019-05-01T08:19:39.312Z,1010.02
2019-05-01T08:20:39.179Z,1010.00
2019-05-01T08:21:39.596Z,1009.97
2019-05-01T08:22:40.034Z,1010.02
2019-05-01T08:23:42.672Z,1010.00
2019-05-01T08:24:40.906Z,1010.02
2019-05-01T08:25:41.508Z,1009.96
2019-05-01T08:26:44.170Z,1009.99
2019-05-01T08:27:42.230Z,1009.98
2019-05-01T08:28:42.657Z,1010.04
2019-05-01T08:29:43.813Z,1010.02
2019-05-01T08:30:43.522Z,1010.00
2019-05-01T08:31:43.989Z,1010.02
2019-05-01T08:32:44.401Z,1010.00
2019-05-01T08:33:49.682Z,1009.99
2019-05-01T08:34:49.049Z,1010.00
2019-05-01T08:35:45.705Z,1009.94
2019-05-01T08:36:47.231Z,1009.93
2019-05-01T08:37:46.576Z,1009.97
2019-05-01T08:38:47.025Z,1009.96
2019-05-01T08:39:47.457Z,1009.94
2019-05-01T08:40:50.668Z,1009.98
2019-05-01T08:41:48.331Z,1009.94
2019-05-01T08:42:48.777Z,1009.91
2019-05-01T08:43:54.205Z,1009.88
2019-05-01T08:44:49.659Z,1009.97
2019-05-01T08:45:50.105Z,1009.91
2019-05-01T08:46:51.015Z,1009.91
2019-05-01T08:47:50.986Z,1009.95
2019-05-01T08:48:51.417Z,1009.95
2019-05-01T08:49:51.865Z,1009.91
2019-05-01T08:50:54.496Z,1009.95
2019-05-01T08:51:52.749Z,1009.94
2019-05-01T08:52:53.192Z,1009.89
2019-05-01T08:53:57.954Z,1009.89
2019-05-01T08:54:54.871Z,1009.91
2019-05-01T08:55:54.518Z,1009.88
2019-05-01T08:56:58.102Z,1009.88
2019-05-01T08:57:55.427Z,1009.87
2019-05-01T08:58:55.844Z,1009.85
2019-05-01T09:00:00.260Z,1009.89
2019-05-01T09:00:56.729Z,1009.90
2019-05-01T09:02:08.789Z,1009.90
2019-05-01T09:03:07.906Z,1009.90
2019-05-01T09:03:58.079Z,1009.89
2019-05-01T09:05:02.502Z,1009.90
2019-05-01T09:05:59.086Z,1009.93
2019-05-01T09:06:59.374Z,1009.86
2019-05-01T09:07:59.827Z,1009.85
2019-05-01T09:09:03.068Z,1009.89
2019-05-01T09:10:00.705Z,1009.88
2019-05-01T09:11:02.280Z,1009.92
2019-05-01T09:12:01.590Z,1009.79
2019-05-01T09:13:02.034Z,1009.81
2019-05-01T09:14:02.480Z,1009.78
2019-05-01T09:15:07.093Z,1009.84
2019-05-01T09:16:03.363Z,1009.81
2019-05-01T09:17:03.804Z,1009.82
2019-05-01T09:18:04.251Z,1009.77
2019-05-01T09:19:04.694Z,1009.77
2019-05-01T09:20:05.138Z,1009.77
2019-05-01T09:21:05.574Z,1009.79
2019-05-01T09:22:06.019Z,1009.79
2019-05-01T09:23:09.568Z,1009.84
2019-05-01T09:24:06.908Z,1009.80
2019-05-01T09:25:07.361Z,1009.71
2019-05-01T09:26:14.779Z,1009.72
2019-05-01T09:27:08.243Z,1009.78
2019-05-01T09:28:08.680Z,1009.69
2019-05-01T09:29:11.072Z,1009.81
2019-05-01T09:30:09.560Z,1009.75
2019-05-01T09:31:10.010Z,1009.77
2019-05-01T09:32:11.927Z,1009.80
2019-05-01T09:33:10.894Z,1009.78
2019-05-01T09:34:14.102Z,1009.77
2019-05-01T09:35:15.945Z,1009.75
2019-05-01T09:36:12.215Z,1009.75
2019-05-01T09:37:12.656Z,1009.78
2019-05-01T09:39:47.437Z,1009.73
2019-05-01T09:40:46.647Z,1009.71
2019-05-01T09:42:41.238Z,1009.68
2019-05-01T09:43:41.668Z,1009.66
2019-05-01T09:45:36.245Z,1009.69
2019-05-01T09:46:36.685Z,1009.65
2019-05-01T09:48:31.274Z,1009.59
2019-05-01T09:49:31.707Z,1009.55
2019-05-01T09:51:26.283Z,1009.55
2019-05-01T09:53:59.844Z,1009.57
2019-05-01T09:55:00.286Z,1009.51
2019-05-01T09:56:54.913Z,1009.53
2019-05-01T09:57:55.319Z,1009.53
2019-05-01T09:59:49.917Z,1009.40
2019-05-01T10:00:52.726Z,1009.49
2019-05-01T10:02:45.943Z,1009.50
2019-05-01T10:03:49.413Z,1009.47
2019-05-01T10:05:42.893Z,1009.45
2019-05-01T10:06:41.431Z,1009.46
2019-05-01T10:08:40.078Z,1009.43
2019-05-01T10:09:36.498Z,1009.42
2019-05-01T10:11:35.867Z,1009.46
2019-05-01T10:12:32.560Z,1009.43
2019-05-01T10:14:27.173Z,1009.34
2019-05-01T10:15:27.621Z,1009.41
2019-05-01T10:17:23.224Z,1009.42
2019-05-01T10:18:23.681Z,1009.38
2019-05-01T10:20:18.293Z,1009.41
2019-05-01T10:21:22.522Z,1009.37
2019-05-01T10:23:15.037Z,1009.35
2019-05-01T10:24:14.814Z,1009.32
2019-05-01T10:26:09.434Z,1009.36
2019-05-01T10:27:09.889Z,1009.30
2019-05-01T10:29:04.519Z,1009.33
2019-05-01T10:30:04.975Z,1009.32
2019-05-01T10:31:59.595Z,1009.33
2019-05-01T10:33:00.051Z,1009.26
2019-05-01T10:34:56.892Z,1009.23
2019-05-01T10:35:56.124Z,1009.26
2019-05-01T10:37:50.730Z,1009.28
2019-05-01T10:38:51.188Z,1009.30
2019-05-01T10:40:45.821Z,1009.26
2019-05-01T10:41:47.876Z,1009.23
2019-05-01T10:43:40.896Z,1009.21
2019-05-01T10:44:41.359Z,1009.15
2019-05-01T10:46:36.054Z,1009.17
2019-05-01T10:47:36.533Z,1009.16
2019-05-01T10:49:31.138Z,1009.17
2019-05-01T10:50:31.586Z,1009.28
2019-05-01T10:52:27.183Z,1009.21
2019-05-01T10:53:27.642Z,1009.23
2019-05-01T10:55:22.280Z,1009.23
2019-05-01T10:56:22.731Z,1009.19
2019-05-01T10:58:18.927Z,1009.18
2019-05-01T10:59:17.819Z,1009.16
2019-05-01T11:01:12.457Z,1009.11
2019-05-01T11:02:12.922Z,1009.09
2019-05-01T11:04:21.737Z,1008.99
2019-05-01T11:05:08.969Z,1009.04
2019-05-01T11:07:04.620Z,1008.98
2019-05-01T11:08:05.333Z,1009.00
2019-05-01T11:09:05.514Z,1008.96
2019-05-01T11:10:05.985Z,1008.99
2019-05-01T11:11:06.446Z,1008.99
2019-05-01T11:12:06.905Z,1008.95
2019-05-01T11:13:07.843Z,1008.93
2019-05-01T11:14:07.834Z,1008.90
2019-05-01T11:15:08.300Z,1008.84
2019-05-01T11:16:08.751Z,1008.88
2019-05-01T11:17:09.203Z,1008.91
2019-05-01T11:18:09.674Z,1008.88
2019-05-01T11:19:10.142Z,1008.87
2019-05-01T11:20:10.588Z,1008.87
2019-05-01T11:21:11.056Z,1008.87
2019-05-01T11:22:11.515Z,1008.80
2019-05-01T11:23:11.979Z,1008.85
2019-05-01T11:24:12.464Z,1008.84
2019-05-01T11:25:12.907Z,1008.84
2019-05-01T11:26:13.355Z,1008.78
2019-05-01T11:27:13.809Z,1008.85
2019-05-01T11:28:14.268Z,1008.91
2019-05-01T11:29:14.737Z,1008.91
2019-05-01T11:30:15.210Z,1008.87
2019-05-01T11:31:15.642Z,1008.88
2019-05-01T11:32:16.099Z,1008.86
2019-05-01T11:33:16.556Z,1008.86
2019-05-01T11:34:17.031Z,1008.83
2019-05-01T11:36:50.608Z,1008.84
2019-05-01T11:37:51.114Z,1008.86
2019-05-01T11:39:45.682Z,1008.90
2019-05-01T11:40:46.136Z,1008.83
2019-05-01T11:42:40.905Z,1008.84
2019-05-01T11:43:41.166Z,1008.80
2019-05-01T11:44:41.617Z,1008.84
2019-05-01T11:45:42.092Z,1008.82
2019-05-01T11:46:42.520Z,1008.84
2019-05-01T11:47:42.968Z,1008.72
2019-05-01T11:48:44.601Z,1008.80
2019-05-01T11:49:43.954Z,1008.74
2019-05-01T11:50:44.321Z,1008.72
2019-05-01T11:51:45.883Z,1008.70
2019-05-01T11:52:45.174Z,1008.70
2019-05-01T11:53:45.633Z,1008.69
2019-05-01T11:54:46.091Z,1008.68
2019-05-01T11:55:46.515Z,1008.64
2019-05-01T11:56:46.966Z,1008.63
2019-05-01T11:57:47.395Z,1008.65
2019-05-01T11:58:47.845Z,1008.56
2019-05-01T11:59:48.343Z,1008.57
2019-05-01T12:00:48.736Z,1008.59
2019-05-01T12:01:49.198Z,1008.64
2019-05-01T12:02:49.612Z,1008.52
2019-05-01T12:03:50.050Z,1008.56
2019-05-01T12:04:50.513Z,1008.53
2019-05-01T12:05:50.944Z,1008.55
2019-05-01T12:06:51.379Z,1008.63
2019-05-01T12:09:24.974Z,1008.60
2019-05-01T12:10:25.401Z,1008.55
2019-05-01T12:12:20.972Z,1008.55
2019-05-01T12:13:21.401Z,1008.54
2019-05-01T12:15:15.992Z,1008.49
2019-05-01T12:16:16.427Z,1008.47
2019-05-01T12:18:11.081Z,1008.59
2019-05-01T12:19:11.485Z,1008.57
2019-05-01T12:21:06.047Z,1008.57
2019-05-01T12:22:06.498Z,1008.48
2019-05-01T12:24:01.126Z,1008.51
2019-05-01T12:25:01.549Z,1008.50
2019-05-01T12:26:56.153Z,1008.42
2019-05-01T12:27:56.599Z,1008.39
2019-05-01T12:29:51.193Z,1008.38
2019-05-01T12:32:25.799Z,1008.30
2019-05-01T12:33:26.177Z,1008.35
2019-05-01T12:35:20.772Z,1008.34
2019-05-01T12:37:55.496Z,1008.30
2019-05-01T12:38:54.757Z,1008.28
2019-05-01T12:40:49.342Z,1008.27
2019-05-01T12:41:49.770Z,1008.25
2019-05-01T12:43:44.350Z,1008.23
2019-05-01T12:44:44.778Z,1008.27
2019-05-01T12:46:39.383Z,1008.26
2019-05-01T12:47:39.826Z,1008.24
2019-05-01T12:49:34.434Z,1008.26
2019-05-01T12:50:34.863Z,1008.24
2019-05-01T12:52:29.511Z,1008.22
2019-05-01T12:53:29.905Z,1008.17
2019-05-01T12:55:24.671Z,1008.10
2019-05-01T12:56:24.984Z,1008.16
2019-05-01T12:57:25.419Z,1008.14
2019-05-01T12:58:25.860Z,1008.17
2019-05-01T12:59:26.306Z,1008.16
2019-05-01T13:00:26.829Z,1008.17
2019-05-01T13:01:27.251Z,1008.14
2019-05-01T13:02:27.634Z,1008.14
2019-05-01T13:03:28.062Z,1008.12
2019-05-01T13:04:28.505Z,1008.12
2019-05-01T13:05:28.949Z,1008.07
2019-05-01T13:06:29.384Z,1008.10
2019-05-01T13:07:29.825Z,1008.08
2019-05-01T13:08:30.297Z,1008.10
2019-05-01T13:09:30.707Z,1008.14
2019-05-01T13:10:31.148Z,1008.10
2019-05-01T13:11:31.598Z,1008.09
2019-05-01T13:12:32.035Z,1008.04
2019-05-01T13:13:32.483Z,1008.02
2019-05-01T13:14:32.895Z,1008.08
2019-05-01T13:15:33.343Z,1007.98
2019-05-01T13:16:33.777Z,1008.04
2019-05-01T13:17:34.217Z,1008.03
2019-05-01T13:18:34.651Z,1008.02
2019-05-01T13:19:35.100Z,1008.05
2019-05-01T13:20:35.534Z,1008.07
2019-05-01T13:21:35.980Z,1008.02